createdAt,value
2022-10-07T00:02:31.622Z,4.20
2022-10-07T00:07:33.415Z,3.78
2022-10-07T00:12:35.272Z,3.28
2022-10-07T00:17:36.888Z,3.95
2022-10-07T00:22:38.712Z,3.60
2022-10-07T00:27:40.309Z,3.88
2022-10-07T00:32:41.992Z,4.18
2022-10-07T00:37:43.980Z,4.05
2022-10-07T00:42:45.946Z,3.97
2022-10-07T00:47:50.093Z,4.75
2022-10-07T00:52:57.195Z,4.28
2022-10-07T00:58:07.714Z,4.50
2022-10-07T01:03:09.404Z,4.68
2022-10-07T01:08:11.127Z,4.75
2022-10-07T01:13:58.242Z,3.80
2022-10-07T01:19:19.456Z,4.35
2022-10-07T01:24:24.114Z,4.00
2022-10-07T01:29:43.503Z,4.75
2022-10-07T01:34:47.349Z,3.80
2022-10-07T01:39:53.806Z,3.45
2022-10-07T01:44:58.665Z,4.13
2022-10-07T01:50:00.441Z,4.50
2022-10-07T01:55:23.876Z,4.45
2022-10-07T02:00:25.665Z,4.40
2022-10-07T02:06:06.323Z,4.72
2022-10-07T02:11:13.911Z,4.60
2022-10-07T02:16:21.676Z,4.00
2022-10-07T02:21:29.271Z,4.10
2022-10-07T02:26:33.878Z,3.55
2022-10-07T02:31:36.916Z,4.05
2022-10-07T02:36:45.057Z,3.63
2022-10-07T02:41:58.677Z,4.43
2022-10-07T02:47:28.928Z,4.43
2022-10-07T02:52:32.926Z,5.20
2022-10-07T02:57:39.564Z,4.70
2022-10-07T03:02:51.681Z,4.63
2022-10-07T03:07:57.777Z,4.07
2022-10-07T03:12:59.480Z,4.20
2022-10-07T03:18:01.305Z,4.80
2022-10-07T03:23:02.933Z,4.93
2022-10-07T03:28:04.651Z,5.10
2022-10-07T03:33:06.712Z,4.93
2022-10-07T03:38:09.781Z,4.60
2022-10-07T03:43:11.512Z,4.80
2022-10-07T03:48:13.196Z,6.05
2022-10-07T03:53:15.033Z,4.80
2022-10-07T03:58:16.791Z,5.60
2022-10-07T04:03:18.808Z,6.20
2022-10-07T04:08:20.636Z,7.82
2022-10-07T04:13:22.644Z,7.43
2022-10-07T04:18:24.698Z,8.02
2022-10-07T04:23:26.808Z,8.52
2022-10-07T04:28:28.575Z,8.65
2022-10-07T04:33:30.261Z,9.60
2022-10-07T04:38:32.625Z,9.18
2022-10-07T04:43:34.528Z,11.05
2022-10-07T04:48:36.383Z,13.77
2022-10-07T04:53:38.956Z,13.95
2022-10-07T04:58:40.663Z,15.60
2022-10-07T05:03:42.351Z,17.33
2022-10-07T05:08:44.185Z,17.08
2022-10-07T05:13:45.868Z,17.25
2022-10-07T05:18:47.602Z,18.33
2022-10-07T05:23:49.272Z,19.90
2022-10-07T05:28:50.871Z,16.52
2022-10-07T05:33:52.625Z,16.88
2022-10-07T05:38:58.022Z,16.83
2022-10-07T05:44:01.024Z,16.98
2022-10-07T05:49:03.195Z,16.95
2022-10-07T05:54:04.992Z,16.92
2022-10-07T05:59:06.730Z,16.48
2022-10-07T06:04:08.807Z,15.65
2022-10-07T06:09:29.912Z,14.93
2022-10-07T06:14:31.628Z,15.00
2022-10-07T06:19:33.386Z,16.38
2022-10-07T06:24:35.288Z,18.73
2022-10-07T06:29:36.984Z,17.08
2022-10-07T06:34:38.835Z,18.08
2022-10-07T06:39:40.649Z,16.08
2022-10-07T06:44:42.992Z,16.23
2022-10-07T06:49:44.690Z,17.92
2022-10-07T06:54:46.461Z,18.95
2022-10-07T06:59:49.232Z,20.88
2022-10-07T07:04:55.329Z,21.13
2022-10-07T07:09:59.217Z,21.33
2022-10-07T07:15:01.534Z,22.42
2022-10-07T07:20:03.601Z,21.55
2022-10-07T07:25:05.765Z,20.08
2022-10-07T07:30:07.892Z,21.65
2022-10-07T07:35:09.680Z,20.55
2022-10-07T07:40:11.420Z,22.20
2022-10-07T07:45:13.530Z,20.98
2022-10-07T07:50:18.378Z,21.95
2022-10-07T07:55:22.155Z,19.38
2022-10-07T08:00:23.869Z,19.27
2022-10-07T08:05:25.580Z,17.48
2022-10-07T08:10:27.209Z,17.20
2022-10-07T08:15:28.984Z,16.33
2022-10-07T08:20:30.664Z,15.70
2022-10-07T08:25:32.774Z,14.07
2022-10-07T08:30:35.341Z,13.60
2022-10-07T08:35:37.046Z,12.35
2022-10-07T08:40:50.265Z,10.35
2022-10-07T08:45:55.807Z,10.85
2022-10-07T08:51:19.779Z,8.73
2022-10-07T08:56:24.433Z,8.30
2022-10-07T09:01:37.331Z,7.88
2022-10-07T09:06:55.383Z,7.65
2022-10-07T09:11:59.724Z,6.82
2022-10-07T09:22:19.366Z,6.97
2022-10-07T09:27:23.066Z,6.53
2022-10-07T09:32:24.854Z,6.33
2022-10-07T09:37:27.903Z,6.25
2022-10-07T09:42:38.605Z,6.57
2022-10-07T09:47:41.925Z,6.05
2022-10-07T09:52:55.520Z,5.28
2022-10-07T09:58:02.395Z,4.90
2022-10-07T10:03:07.495Z,4.70
2022-10-07T10:08:18.266Z,4.22
2022-10-07T10:13:33.111Z,4.10
2022-10-07T10:18:40.594Z,3.88
2022-10-07T10:23:48.943Z,3.97
2022-10-07T10:29:06.991Z,3.67
2022-10-07T10:34:29.918Z,3.58
2022-10-07T10:40:09.497Z,2.88
2022-10-07T10:45:14.100Z,2.50
2022-10-07T10:50:15.784Z,3.03
2022-10-07T10:55:21.643Z,2.78
2022-10-07T11:00:24.179Z,2.42
2022-10-07T11:05:34.025Z,2.30
2022-10-07T11:10:50.280Z,2.55
2022-10-07T11:15:59.262Z,2.17
2022-10-07T11:21:04.169Z,2.13
2022-10-07T11:26:15.997Z,2.33
2022-10-07T11:31:37.522Z,2.92
2022-10-07T11:36:56.253Z,2.78
2022-10-07T11:42:16.858Z,2.03
2022-10-07T11:47:23.867Z,1.70
2022-10-07T11:52:29.936Z,1.70
2022-10-07T11:57:34.376Z,1.50
2022-10-07T12:07:44.839Z,1.53
2022-10-07T12:12:50.793Z,1.20
2022-10-07T12:18:19.519Z,1.80
2022-10-07T12:23:28.092Z,1.50
2022-10-07T12:28:48.705Z,2.10
2022-10-07T12:34:21.583Z,2.30
2022-10-07T12:39:35.228Z,2.30
2022-10-07T12:44:48.810Z,1.90
2022-10-07T12:49:58.501Z,2.42
2022-10-07T12:55:07.268Z,2.03
2022-10-07T13:00:20.193Z,1.90
2022-10-07T13:05:46.562Z,2.10
2022-10-07T13:11:13.857Z,2.05
2022-10-07T13:16:23.807Z,2.72
2022-10-07T13:21:49.519Z,2.92
2022-10-07T13:26:52.159Z,2.08
2022-10-07T13:32:17.843Z,1.88
2022-10-07T13:37:27.943Z,2.65
2022-10-07T13:42:29.939Z,2.42
2022-10-07T13:47:36.491Z,2.13
2022-10-07T13:52:44.627Z,2.03
2022-10-07T13:57:46.688Z,2.50
2022-10-07T14:02:50.659Z,2.10
2022-10-07T14:07:55.541Z,1.80
2022-10-07T14:13:04.873Z,2.10
2022-10-07T14:18:12.319Z,2.30
2022-10-07T14:23:33.999Z,2.13
2022-10-07T14:28:38.986Z,2.20
2022-10-07T14:34:13.162Z,2.17
2022-10-07T14:39:35.495Z,1.97
2022-10-07T14:44:37.630Z,2.03
2022-10-07T14:49:42.024Z,2.40
2022-10-07T14:59:49.880Z,2.85
2022-10-07T15:04:51.600Z,2.20
2022-10-07T15:09:53.349Z,2.25
2022-10-07T15:14:55.124Z,2.15
2022-10-07T15:19:56.876Z,2.25
2022-10-07T15:24:58.612Z,2.40
2022-10-07T15:30:00.384Z,2.88
2022-10-07T15:35:02.264Z,2.58
2022-10-07T15:40:06.625Z,1.83
2022-10-07T15:50:10.525Z,2.03
2022-10-07T15:55:12.239Z,1.83
2022-10-07T16:00:14.812Z,2.22
2022-10-07T16:05:16.602Z,2.08
2022-10-07T16:10:18.223Z,1.83
2022-10-07T16:15:20.600Z,1.70
2022-10-07T16:20:22.353Z,1.90
2022-10-07T16:25:23.955Z,2.00
2022-10-07T16:30:41.077Z,2.20
2022-10-07T16:35:42.766Z,2.28
2022-10-07T16:40:52.775Z,2.20
2022-10-07T16:45:54.439Z,2.10
2022-10-07T16:50:56.165Z,2.10
2022-10-07T16:56:02.147Z,2.00
2022-10-07T17:01:05.544Z,1.65
2022-10-07T17:06:12.973Z,2.28
2022-10-07T17:11:29.097Z,2.10
2022-10-07T17:16:34.087Z,2.60
2022-10-07T17:21:36.620Z,2.85
2022-10-07T17:26:38.725Z,2.58
2022-10-07T17:31:42.603Z,2.08
2022-10-07T17:36:44.350Z,2.78
2022-10-07T17:41:46.498Z,2.25
2022-10-07T17:46:49.009Z,2.00
2022-10-07T17:51:50.832Z,1.90
2022-10-07T17:56:52.517Z,2.92
2022-10-07T18:01:54.251Z,2.55
2022-10-07T18:06:58.137Z,2.72
2022-10-07T18:12:18.480Z,3.10
2022-10-07T18:17:20.195Z,2.72
2022-10-07T18:22:21.947Z,2.55
2022-10-07T18:27:26.988Z,2.33
2022-10-07T18:32:28.679Z,2.67
2022-10-07T18:37:30.803Z,2.97
2022-10-07T18:42:37.305Z,3.40
2022-10-07T18:47:39.026Z,3.40
2022-10-07T18:52:40.692Z,3.63
2022-10-07T18:57:42.336Z,3.58
2022-10-07T19:02:46.000Z,3.35
2022-10-07T19:07:49.109Z,4.10
2022-10-07T19:13:10.533Z,3.90
2022-10-07T19:18:13.166Z,3.78
2022-10-07T19:23:14.907Z,4.07
2022-10-07T19:28:16.670Z,3.92
2022-10-07T19:33:18.880Z,5.13
2022-10-07T19:38:20.895Z,5.32
2022-10-07T19:43:22.846Z,4.78
2022-10-07T19:48:24.625Z,4.20
2022-10-07T19:53:33.619Z,3.85
2022-10-07T19:58:36.017Z,4.65
2022-10-07T20:03:37.848Z,4.30
2022-10-07T20:08:44.604Z,4.20
2022-10-07T20:13:46.237Z,4.35
2022-10-07T20:18:52.488Z,4.13
2022-10-07T20:23:54.752Z,4.38
2022-10-07T20:28:58.730Z,4.78
2022-10-07T20:34:01.615Z,5.03
2022-10-07T20:39:31.573Z,4.90
2022-10-07T20:44:33.398Z,4.50
2022-10-07T20:49:37.234Z,4.95
2022-10-07T20:54:38.886Z,5.10
2022-10-07T20:59:40.474Z,5.55
2022-10-07T21:04:42.238Z,5.25
2022-10-07T21:09:44.340Z,5.43
2022-10-07T21:14:47.914Z,5.30
2022-10-07T21:19:49.864Z,5.10
2022-10-07T21:24:51.678Z,5.57
2022-10-07T21:29:53.341Z,5.80
2022-10-07T21:34:56.718Z,4.43
2022-10-07T21:39:59.619Z,4.38
2022-10-07T21:45:01.639Z,4.53
2022-10-07T21:50:03.431Z,4.60
2022-10-07T21:55:07.189Z,4.50
2022-10-07T22:00:12.166Z,5.10
2022-10-07T22:05:15.220Z,4.78
2022-10-07T22:10:17.079Z,4.78
2022-10-07T22:15:18.833Z,4.55
2022-10-07T22:20:20.497Z,4.82
2022-10-07T22:25:23.199Z,5.50
2022-10-07T22:30:25.012Z,4.88
2022-10-07T22:35:35.001Z,5.10
2022-10-07T22:40:38.415Z,6.07
2022-10-07T22:45:40.108Z,5.35
2022-10-07T22:50:41.787Z,4.85
2022-10-07T22:55:43.741Z,4.70
2022-10-07T23:00:46.377Z,5.03
2022-10-07T23:05:50.427Z,4.63
2022-10-07T23:10:59.663Z,4.65
2022-10-07T23:16:06.521Z,4.70
2022-10-07T23:21:11.877Z,5.03
2022-10-07T23:26:16.806Z,4.53
2022-10-07T23:31:21.537Z,3.78
2022-10-07T23:36:24.921Z,3.67
2022-10-07T23:41:28.810Z,4.20
2022-10-07T23:46:36.210Z,4.03
2022-10-07T23:51:38.066Z,4.55
2022-10-07T23:56:39.807Z,4.70
